sensor_id;sensor_type;location;lat;lon;timestamp;P1;durP1;ratioP1;P2;durP2;ratioP2
13704;SDS011;6924;52.122;9.952;2023-04-24T00:01:00;0.60;;;0.40;;
13704;SDS011;6924;52.122;9.952;2023-04-24T00:03:27;0.70;;;0.57;;
13704;SDS011;6924;52.122;9.952;2023-04-24T00:05:54;0.77;;;0.77;;
13704;SDS011;6924;52.122;9.952;2023-04-24T00:08:20;0.50;;;0.50;;
13704;SDS011;6924;52.122;9.952;2023-04-24T00:10:47;1.27;;;0.60;;
13704;SDS011;6924;52.122;9.952;2023-04-24T00:13:14;2.93;;;0.50;;
13704;SDS011;6924;52.122;9.952;2023-04-24T00:15:41;2.20;;;0.67;;
13704;SDS011;6924;52.122;9.952;2023-04-24T00:18:08;0.70;;;0.70;;
13704;SDS011;6924;52.122;9.952;2023-04-24T00:20:34;0.70;;;0.70;;
13704;SDS011;6924;52.122;9.952;2023-04-24T00:23:01;1.60;;;1.00;;
13704;SDS011;6924;52.122;9.952;2023-04-24T00:25:27;1.43;;;0.57;;
13704;SDS011;6924;52.122;9.952;2023-04-24T00:27:54;0.60;;;0.60;;
13704;SDS011;6924;52.122;9.952;2023-04-24T00:30:20;0.50;;;0.50;;
13704;SDS011;6924;52.122;9.952;2023-04-24T00:32:48;0.80;;;0.80;;
13704;SDS011;6924;52.122;9.952;2023-04-24T00:35:14;0.70;;;0.70;;
13704;SDS011;6924;52.122;9.952;2023-04-24T00:37:41;1.60;;;0.90;;
13704;SDS011;6924;52.122;9.952;2023-04-24T00:40:07;3.03;;;0.50;;
13704;SDS011;6924;52.122;9.952;2023-04-24T00:42:34;0.83;;;0.50;;
13704;SDS011;6924;52.122;9.952;2023-04-24T00:45:01;0.70;;;0.70;;
13704;SDS011;6924;52.122;9.952;2023-04-24T00:47:28;0.80;;;0.70;;
13704;SDS011;6924;52.122;9.952;2023-04-24T00:49:57;0.83;;;0.60;;
13704;SDS011;6924;52.122;9.952;2023-04-24T00:52:23;0.57;;;0.57;;
13704;SDS011;6924;52.122;9.952;2023-04-24T00:54:50;1.37;;;0.70;;
13704;SDS011;6924;52.122;9.952;2023-04-24T00:57:16;1.40;;;1.30;;
13704;SDS011;6924;52.122;9.952;2023-04-24T00:59:43;0.83;;;0.80;;
13704;SDS011;6924;52.122;9.952;2023-04-24T01:02:10;1.27;;;0.90;;
13704;SDS011;6924;52.122;9.952;2023-04-24T01:04:37;0.60;;;0.60;;
13704;SDS011;6924;52.122;9.952;2023-04-24T01:07:05;0.80;;;0.80;;
13704;SDS011;6924;52.122;9.952;2023-04-24T01:09:35;1.00;;;0.90;;
13704;SDS011;6924;52.122;9.952;2023-04-24T01:12:02;0.70;;;0.70;;
13704;SDS011;6924;52.122;9.952;2023-04-24T01:14:28;0.70;;;0.70;;
13704;SDS011;6924;52.122;9.952;2023-04-24T01:16:55;0.87;;;0.80;;
13704;SDS011;6924;52.122;9.952;2023-04-24T01:19:22;0.80;;;0.80;;
13704;SDS011;6924;52.122;9.952;2023-04-24T01:21:50;1.03;;;0.70;;
13704;SDS011;6924;52.122;9.952;2023-04-24T01:24:20;1.00;;;0.67;;
13704;SDS011;6924;52.122;9.952;2023-04-24T01:26:47;0.60;;;0.60;;
13704;SDS011;6924;52.122;9.952;2023-04-24T01:29:13;0.80;;;0.70;;
13704;SDS011;6924;52.122;9.952;2023-04-24T01:31:40;4.07;;;0.73;;
13704;SDS011;6924;52.122;9.952;2023-04-24T01:34:06;0.90;;;0.90;;
13704;SDS011;6924;52.122;9.952;2023-04-24T01:36:34;2.47;;;0.80;;
13704;SDS011;6924;52.122;9.952;2023-04-24T01:39:01;3.40;;;0.70;;
13704;SDS011;6924;52.122;9.952;2023-04-24T01:41:29;1.00;;;0.80;;
13704;SDS011;6924;52.122;9.952;2023-04-24T01:43:56;0.70;;;0.70;;
13704;SDS011;6924;52.122;9.952;2023-04-24T01:46:23;0.77;;;0.77;;
13704;SDS011;6924;52.122;9.952;2023-04-24T01:48:50;1.90;;;0.60;;
13704;SDS011;6924;52.122;9.952;2023-04-24T01:51:17;1.47;;;0.70;;
13704;SDS011;6924;52.122;9.952;2023-04-24T01:53:44;1.07;;;0.50;;
13704;SDS011;6924;52.122;9.952;2023-04-24T01:56:10;0.80;;;0.80;;
13704;SDS011;6924;52.122;9.952;2023-04-24T01:58:38;1.20;;;0.50;;
13704;SDS011;6924;52.122;9.952;2023-04-24T02:01:06;0.50;;;0.50;;
13704;SDS011;6924;52.122;9.952;2023-04-24T02:03:32;0.70;;;0.70;;
13704;SDS011;6924;52.122;9.952;2023-04-24T02:05:59;1.10;;;0.80;;
13704;SDS011;6924;52.122;9.952;2023-04-24T02:08:25;1.50;;;0.90;;
13704;SDS011;6924;52.122;9.952;2023-04-24T02:10:51;0.87;;;0.60;;
13704;SDS011;6924;52.122;9.952;2023-04-24T02:13:18;0.40;;;0.40;;
13704;SDS011;6924;52.122;9.952;2023-04-24T02:15:45;0.50;;;0.50;;
13704;SDS011;6924;52.122;9.952;2023-04-24T02:18:12;0.97;;;0.77;;
13704;SDS011;6924;52.122;9.952;2023-04-24T02:20:38;1.47;;;0.70;;
13704;SDS011;6924;52.122;9.952;2023-04-24T02:23:05;1.07;;;0.97;;
13704;SDS011;6924;52.122;9.952;2023-04-24T02:25:31;2.30;;;0.60;;
13704;SDS011;6924;52.122;9.952;2023-04-24T02:27:59;0.70;;;0.70;;
13704;SDS011;6924;52.122;9.952;2023-04-24T02:30:25;2.10;;;0.63;;
13704;SDS011;6924;52.122;9.952;2023-04-24T02:32:53;0.50;;;0.50;;
13704;SDS011;6924;52.122;9.952;2023-04-24T02:35:20;0.93;;;0.80;;
13704;SDS011;6924;52.122;9.952;2023-04-24T02:37:46;0.70;;;0.70;;
13704;SDS011;6924;52.122;9.952;2023-04-24T02:40:13;0.53;;;0.50;;
13704;SDS011;6924;52.122;9.952;2023-04-24T02:42:39;0.60;;;0.60;;
13704;SDS011;6924;52.122;9.952;2023-04-24T02:45:06;0.50;;;0.50;;
13704;SDS011;6924;52.122;9.952;2023-04-24T02:47:33;0.93;;;0.60;;
13704;SDS011;6924;52.122;9.952;2023-04-24T02:50:01;0.50;;;0.50;;
13704;SDS011;6924;52.122;9.952;2023-04-24T02:52:28;0.87;;;0.50;;
13704;SDS011;6924;52.122;9.952;2023-04-24T02:54:54;0.50;;;0.43;;
13704;SDS011;6924;52.122;9.952;2023-04-24T02:57:21;0.70;;;0.57;;
13704;SDS011;6924;52.122;9.952;2023-04-24T02:59:47;0.70;;;0.70;;
13704;SDS011;6924;52.122;9.952;2023-04-24T03:02:14;0.50;;;0.50;;
13704;SDS011;6924;52.122;9.952;2023-04-24T03:04:40;0.70;;;0.50;;
13704;SDS011;6924;52.122;9.952;2023-04-24T03:07:09;0.40;;;0.40;;
13704;SDS011;6924;52.122;9.952;2023-04-24T03:09:35;0.90;;;0.40;;
13704;SDS011;6924;52.122;9.952;2023-04-24T03:12:01;0.40;;;0.40;;
13704;SDS011;6924;52.122;9.952;2023-04-24T03:14:28;1.10;;;0.57;;
13704;SDS011;6924;52.122;9.952;2023-04-24T03:16:56;0.50;;;0.50;;
13704;SDS011;6924;52.122;9.952;2023-04-24T03:19:22;0.43;;;0.30;;
13704;SDS011;6924;52.122;9.952;2023-04-24T03:21:49;0.57;;;0.57;;
13704;SDS011;6924;52.122;9.952;2023-04-24T03:24:17;0.73;;;0.33;;
13704;SDS011;6924;52.122;9.952;2023-04-24T03:26:43;0.30;;;0.30;;
13704;SDS011;6924;52.122;9.952;2023-04-24T03:29:10;0.30;;;0.30;;
13704;SDS011;6924;52.122;9.952;2023-04-24T03:31:36;1.73;;;0.40;;
13704;SDS011;6924;52.122;9.952;2023-04-24T03:34:02;0.43;;;0.33;;
13704;SDS011;6924;52.122;9.952;2023-04-24T03:36:29;0.30;;;0.30;;
13704;SDS011;6924;52.122;9.952;2023-04-24T03:38:56;0.63;;;0.40;;
13704;SDS011;6924;52.122;9.952;2023-04-24T03:41:23;0.40;;;0.40;;
13704;SDS011;6924;52.122;9.952;2023-04-24T03:43:50;0.93;;;0.40;;
13704;SDS011;6924;52.122;9.952;2023-04-24T03:46:16;1.80;;;0.30;;
13704;SDS011;6924;52.122;9.952;2023-04-24T03:48:42;0.40;;;0.33;;
13704;SDS011;6924;52.122;9.952;2023-04-24T03:51:09;0.40;;;0.40;;
13704;SDS011;6924;52.122;9.952;2023-04-24T03:53:35;1.87;;;0.50;;
13704;SDS011;6924;52.122;9.952;2023-04-24T03:56:02;0.40;;;0.40;;
13704;SDS011;6924;52.122;9.952;2023-04-24T03:58:30;0.53;;;0.40;;
13704;SDS011;6924;52.122;9.952;2023-04-24T04:00:56;0.50;;;0.40;;
13704;SDS011;6924;52.122;9.952;2023-04-24T04:03:23;0.97;;;0.50;;
13704;SDS011;6924;52.122;9.952;2023-04-24T04:05:50;0.50;;;0.40;;
13704;SDS011;6924;52.122;9.952;2023-04-24T04:08:16;1.47;;;0.83;;
13704;SDS011;6924;52.122;9.952;2023-04-24T04:10:43;0.40;;;0.40;;
13704;SDS011;6924;52.122;9.952;2023-04-24T04:13:09;0.60;;;0.33;;
13704;SDS011;6924;52.122;9.952;2023-04-24T04:15:37;0.40;;;0.30;;
13704;SDS011;6924;52.122;9.952;2023-04-24T04:18:03;0.97;;;0.50;;
13704;SDS011;6924;52.122;9.952;2023-04-24T04:20:30;0.30;;;0.30;;
13704;SDS011;6924;52.122;9.952;2023-04-24T04:22:56;0.40;;;0.40;;
13704;SDS011;6924;52.122;9.952;2023-04-24T04:25:23;0.80;;;0.30;;
13704;SDS011;6924;52.122;9.952;2023-04-24T04:27:49;0.37;;;0.37;;
13704;SDS011;6924;52.122;9.952;2023-04-24T04:30:16;0.40;;;0.40;;
13704;SDS011;6924;52.122;9.952;2023-04-24T04:32:44;0.50;;;0.37;;
13704;SDS011;6924;52.122;9.952;2023-04-24T04:35:10;1.37;;;0.40;;
13704;SDS011;6924;52.122;9.952;2023-04-24T04:37:37;0.47;;;0.40;;
13704;SDS011;6924;52.122;9.952;2023-04-24T04:40:05;0.33;;;0.30;;
13704;SDS011;6924;52.122;9.952;2023-04-24T04:42:36;2.17;;;0.60;;
13704;SDS011;6924;52.122;9.952;2023-04-24T04:45:05;3.30;;;0.60;;
13704;SDS011;6924;52.122;9.952;2023-04-24T04:47:33;1.07;;;0.93;;
13704;SDS011;6924;52.122;9.952;2023-04-24T04:50:01;0.30;;;0.27;;
13704;SDS011;6924;52.122;9.952;2023-04-24T04:52:28;0.70;;;0.33;;
13704;SDS011;6924;52.122;9.952;2023-04-24T04:54:55;1.80;;;0.40;;
13704;SDS011;6924;52.122;9.952;2023-04-24T04:57:21;0.30;;;0.30;;
13704;SDS011;6924;52.122;9.952;2023-04-24T04:59:48;0.80;;;0.57;;
13704;SDS011;6924;52.122;9.952;2023-04-24T05:02:14;1.70;;;0.50;;
13704;SDS011;6924;52.122;9.952;2023-04-24T05:04:40;0.80;;;0.43;;
13704;SDS011;6924;52.122;9.952;2023-04-24T05:07:08;1.10;;;0.40;;
13704;SDS011;6924;52.122;9.952;2023-04-24T05:09:34;0.50;;;0.30;;
13704;SDS011;6924;52.122;9.952;2023-04-24T05:12:01;0.40;;;0.40;;
13704;SDS011;6924;52.122;9.952;2023-04-24T05:14:28;0.30;;;0.30;;
13704;SDS011;6924;52.122;9.952;2023-04-24T05:16:54;1.53;;;0.30;;
13704;SDS011;6924;52.122;9.952;2023-04-24T05:19:20;0.30;;;0.30;;
13704;SDS011;6924;52.122;9.952;2023-04-24T05:21:47;0.30;;;0.20;;
13704;SDS011;6924;52.122;9.952;2023-04-24T05:24:14;0.40;;;0.40;;
13704;SDS011;6924;52.122;9.952;2023-04-24T05:26:41;0.77;;;0.20;;
13704;SDS011;6924;52.122;9.952;2023-04-24T05:29:07;0.47;;;0.20;;
13704;SDS011;6924;52.122;9.952;2023-04-24T05:31:34;0.77;;;0.30;;
13704;SDS011;6924;52.122;9.952;2023-04-24T05:34:00;0.20;;;0.20;;
13704;SDS011;6924;52.122;9.952;2023-04-24T05:36:26;1.20;;;0.20;;
13704;SDS011;6924;52.122;9.952;2023-04-24T05:38:53;0.80;;;0.20;;
13704;SDS011;6924;52.122;9.952;2023-04-24T05:41:20;0.43;;;0.20;;
13704;SDS011;6924;52.122;9.952;2023-04-24T05:43:47;1.70;;;0.30;;
13704;SDS011;6924;52.122;9.952;2023-04-24T05:46:14;0.10;;;0.10;;
13704;SDS011;6924;52.122;9.952;2023-04-24T05:48:40;0.20;;;0.10;;
13704;SDS011;6924;52.122;9.952;2023-04-24T05:51:06;0.53;;;0.20;;
13704;SDS011;6924;52.122;9.952;2023-04-24T05:53:33;0.20;;;0.20;;
13704;SDS011;6924;52.122;9.952;2023-04-24T05:55:59;0.30;;;0.30;;
13704;SDS011;6924;52.122;9.952;2023-04-24T05:58:27;0.40;;;0.40;;
13704;SDS011;6924;52.122;9.952;2023-04-24T06:00:53;0.27;;;0.27;;
13704;SDS011;6924;52.122;9.952;2023-04-24T06:03:20;0.77;;;0.37;;
13704;SDS011;6924;52.122;9.952;2023-04-24T06:05:47;0.63;;;0.13;;
13704;SDS011;6924;52.122;9.952;2023-04-24T06:08:15;1.20;;;0.20;;
13704;SDS011;6924;52.122;9.952;2023-04-24T06:10:42;0.80;;;0.30;;
13704;SDS011;6924;52.122;9.952;2023-04-24T06:13:08;0.17;;;0.17;;
13704;SDS011;6924;52.122;9.952;2023-04-24T06:15:36;0.10;;;0.10;;
13704;SDS011;6924;52.122;9.952;2023-04-24T06:18:03;0.30;;;0.27;;
13704;SDS011;6924;52.122;9.952;2023-04-24T06:20:29;0.33;;;0.20;;
13704;SDS011;6924;52.122;9.952;2023-04-24T06:22:56;0.30;;;0.23;;
13704;SDS011;6924;52.122;9.952;2023-04-24T06:25:24;0.60;;;0.50;;
13704;SDS011;6924;52.122;9.952;2023-04-24T06:27:51;0.20;;;0.20;;
13704;SDS011;6924;52.122;9.952;2023-04-24T06:30:17;0.67;;;0.67;;
13704;SDS011;6924;52.122;9.952;2023-04-24T06:32:45;0.50;;;0.50;;
13704;SDS011;6924;52.122;9.952;2023-04-24T06:35:12;1.40;;;0.63;;
13704;SDS011;6924;52.122;9.952;2023-04-24T06:37:38;2.67;;;0.70;;
13704;SDS011;6924;52.122;9.952;2023-04-24T06:40:05;0.50;;;0.50;;
13704;SDS011;6924;52.122;9.952;2023-04-24T06:42:33;0.87;;;0.63;;
13704;SDS011;6924;52.122;9.952;2023-04-24T06:45:00;0.57;;;0.57;;
13704;SDS011;6924;52.122;9.952;2023-04-24T06:47:26;0.80;;;0.80;;
13704;SDS011;6924;52.122;9.952;2023-04-24T06:49:54;0.60;;;0.60;;
13704;SDS011;6924;52.122;9.952;2023-04-24T06:52:20;0.97;;;0.80;;
13704;SDS011;6924;52.122;9.952;2023-04-24T06:54:47;2.47;;;0.83;;
13704;SDS011;6924;52.122;9.952;2023-04-24T06:57:13;0.70;;;0.53;;
13704;SDS011;6924;52.122;9.952;2023-04-24T06:59:41;1.73;;;1.00;;
13704;SDS011;6924;52.122;9.952;2023-04-24T07:02:07;0.60;;;0.60;;
13704;SDS011;6924;52.122;9.952;2023-04-24T07:04:34;1.83;;;1.70;;
13704;SDS011;6924;52.122;9.952;2023-04-24T07:07:01;0.97;;;0.90;;
13704;SDS011;6924;52.122;9.952;2023-04-24T07:09:28;0.80;;;0.63;;
13704;SDS011;6924;52.122;9.952;2023-04-24T07:11:54;1.70;;;1.60;;
13704;SDS011;6924;52.122;9.952;2023-04-24T07:14:21;3.00;;;1.23;;
13704;SDS011;6924;52.122;9.952;2023-04-24T07:16:48;4.17;;;1.97;;
13704;SDS011;6924;52.122;9.952;2023-04-24T07:19:14;1.40;;;1.30;;
13704;SDS011;6924;52.122;9.952;2023-04-24T07:21:41;2.47;;;1.90;;
13704;SDS011;6924;52.122;9.952;2023-04-24T07:24:08;1.50;;;1.30;;
13704;SDS011;6924;52.122;9.952;2023-04-24T07:26:35;1.47;;;1.37;;
13704;SDS011;6924;52.122;9.952;2023-04-24T07:29:02;2.10;;;2.00;;
13704;SDS011;6924;52.122;9.952;2023-04-24T07:31:29;6.47;;;2.53;;
13704;SDS011;6924;52.122;9.952;2023-04-24T07:33:56;2.60;;;2.40;;
13704;SDS011;6924;52.122;9.952;2023-04-24T07:36:23;2.60;;;2.40;;
13704;SDS011;6924;52.122;9.952;2023-04-24T07:38:51;3.10;;;2.63;;
13704;SDS011;6924;52.122;9.952;2023-04-24T07:41:18;2.40;;;2.20;;
13704;SDS011;6924;52.122;9.952;2023-04-24T07:43:45;3.00;;;2.80;;
13704;SDS011;6924;52.122;9.952;2023-04-24T07:46:11;2.97;;;2.73;;
13704;SDS011;6924;52.122;9.952;2023-04-24T07:48:38;3.17;;;2.97;;
13704;SDS011;6924;52.122;9.952;2023-04-24T07:51:04;3.23;;;2.93;;
13704;SDS011;6924;52.122;9.952;2023-04-24T07:53:31;3.10;;;2.90;;
13704;SDS011;6924;52.122;9.952;2023-04-24T07:55:57;4.13;;;2.97;;
13704;SDS011;6924;52.122;9.952;2023-04-24T07:58:25;3.50;;;3.30;;
13704;SDS011;6924;52.122;9.952;2023-04-24T08:00:51;4.43;;;4.03;;
13704;SDS011;6924;52.122;9.952;2023-04-24T08:03:18;3.67;;;3.37;;
13704;SDS011;6924;52.122;9.952;2023-04-24T08:05:44;3.33;;;3.03;;
13704;SDS011;6924;52.122;9.952;2023-04-24T08:08:11;4.63;;;3.40;;
13704;SDS011;6924;52.122;9.952;2023-04-24T08:10:37;3.80;;;3.50;;
13704;SDS011;6924;52.122;9.952;2023-04-24T08:13:04;3.17;;;2.87;;
13704;SDS011;6924;52.122;9.952;2023-04-24T08:15:32;2.77;;;2.57;;
13704;SDS011;6924;52.122;9.952;2023-04-24T08:17:58;2.93;;;2.73;;
13704;SDS011;6924;52.122;9.952;2023-04-24T08:20:25;3.43;;;2.70;;
13704;SDS011;6924;52.122;9.952;2023-04-24T08:22:51;2.50;;;2.10;;
13704;SDS011;6924;52.122;9.952;2023-04-24T08:25:19;2.07;;;1.97;;
13704;SDS011;6924;52.122;9.952;2023-04-24T08:27:45;2.30;;;1.97;;
13704;SDS011;6924;52.122;9.952;2023-04-24T08:30:12;2.80;;;2.23;;
13704;SDS011;6924;52.122;9.952;2023-04-24T08:32:39;2.87;;;1.90;;
13704;SDS011;6924;52.122;9.952;2023-04-24T08:35:06;2.27;;;2.07;;
13704;SDS011;6924;52.122;9.952;2023-04-24T08:37:34;2.40;;;2.03;;
13704;SDS011;6924;52.122;9.952;2023-04-24T08:40:01;2.10;;;1.90;;
13704;SDS011;6924;52.122;9.952;2023-04-24T08:42:32;1.97;;;1.87;;
13704;SDS011;6924;52.122;9.952;2023-04-24T08:45:02;2.67;;;1.90;;
13704;SDS011;6924;52.122;9.952;2023-04-24T08:47:28;2.00;;;1.90;;
13704;SDS011;6924;52.122;9.952;2023-04-24T08:49:56;1.90;;;1.80;;
13704;SDS011;6924;52.122;9.952;2023-04-24T08:52:25;1.83;;;1.73;;
13704;SDS011;6924;52.122;9.952;2023-04-24T08:54:53;2.83;;;2.63;;
13704;SDS011;6924;52.122;9.952;2023-04-24T08:57:19;1.90;;;1.80;;
13704;SDS011;6924;52.122;9.952;2023-04-24T08:59:46;2.20;;;2.10;;
13704;SDS011;6924;52.122;9.952;2023-04-24T09:02:13;2.83;;;2.17;;
13704;SDS011;6924;52.122;9.952;2023-04-24T09:04:40;2.20;;;2.10;;
13704;SDS011;6924;52.122;9.952;2023-04-24T09:07:10;1.93;;;1.83;;
13704;SDS011;6924;52.122;9.952;2023-04-24T09:09:38;2.50;;;2.27;;
13704;SDS011;6924;52.122;9.952;2023-04-24T09:12:05;2.43;;;2.23;;
13704;SDS011;6924;52.122;9.952;2023-04-24T09:14:34;2.40;;;2.20;;
13704;SDS011;6924;52.122;9.952;2023-04-24T09:17:02;2.10;;;1.90;;
13704;SDS011;6924;52.122;9.952;2023-04-24T09:19:28;1.70;;;1.60;;
13704;SDS011;6924;52.122;9.952;2023-04-24T09:21:55;1.63;;;1.53;;
13704;SDS011;6924;52.122;9.952;2023-04-24T09:24:23;2.03;;;1.83;;
13704;SDS011;6924;52.122;9.952;2023-04-24T09:26:55;1.70;;;1.43;;
13704;SDS011;6924;52.122;9.952;2023-04-24T09:29:23;1.53;;;1.43;;
13704;SDS011;6924;52.122;9.952;2023-04-24T09:31:50;1.20;;;1.10;;
13704;SDS011;6924;52.122;9.952;2023-04-24T09:34:20;1.40;;;1.30;;
13704;SDS011;6924;52.122;9.952;2023-04-24T09:36:48;1.73;;;1.37;;
13704;SDS011;6924;52.122;9.952;2023-04-24T09:39:16;1.80;;;1.70;;
13704;SDS011;6924;52.122;9.952;2023-04-24T09:41:45;1.63;;;1.53;;
13704;SDS011;6924;52.122;9.952;2023-04-24T09:44:13;1.60;;;1.50;;
13704;SDS011;6924;52.122;9.952;2023-04-24T09:46:40;1.90;;;1.73;;
13704;SDS011;6924;52.122;9.952;2023-04-24T09:49:08;1.70;;;1.60;;
13704;SDS011;6924;52.122;9.952;2023-04-24T09:51:36;1.30;;;1.20;;
13704;SDS011;6924;52.122;9.952;2023-04-24T09:54:03;1.57;;;1.47;;
13704;SDS011;6924;52.122;9.952;2023-04-24T09:56:32;1.23;;;1.13;;
13704;SDS011;6924;52.122;9.952;2023-04-24T09:59:05;1.20;;;1.10;;
13704;SDS011;6924;52.122;9.952;2023-04-24T10:01:32;1.47;;;1.20;;
13704;SDS011;6924;52.122;9.952;2023-04-24T10:03:59;3.37;;;1.33;;
13704;SDS011;6924;52.122;9.952;2023-04-24T10:06:29;1.40;;;1.30;;
13704;SDS011;6924;52.122;9.952;2023-04-24T10:08:57;1.13;;;1.03;;
13704;SDS011;6924;52.122;9.952;2023-04-24T10:11:24;1.70;;;1.13;;
13704;SDS011;6924;52.122;9.952;2023-04-24T10:13:52;1.20;;;1.10;;
13704;SDS011;6924;52.122;9.952;2023-04-24T10:16:21;1.57;;;1.47;;
13704;SDS011;6924;52.122;9.952;2023-04-24T10:18:48;0.97;;;0.97;;
13704;SDS011;6924;52.122;9.952;2023-04-24T10:21:15;2.23;;;1.20;;
13704;SDS011;6924;52.122;9.952;2023-04-24T10:23:43;1.00;;;1.00;;
13704;SDS011;6924;52.122;9.952;2023-04-24T10:26:11;1.20;;;1.10;;
13704;SDS011;6924;52.122;9.952;2023-04-24T10:28:42;1.10;;;1.10;;
13704;SDS011;6924;52.122;9.952;2023-04-24T10:31:10;1.37;;;1.00;;
13704;SDS011;6924;52.122;9.952;2023-04-24T10:33:39;2.10;;;2.00;;
13704;SDS011;6924;52.122;9.952;2023-04-24T10:36:08;1.27;;;1.27;;
13704;SDS011;6924;52.122;9.952;2023-04-24T10:38:36;1.40;;;1.30;;
13704;SDS011;6924;52.122;9.952;2023-04-24T10:41:08;1.30;;;1.07;;
13704;SDS011;6924;52.122;9.952;2023-04-24T10:43:40;0.90;;;0.80;;
13704;SDS011;6924;52.122;9.952;2023-04-24T10:46:07;1.30;;;1.30;;
13704;SDS011;6924;52.122;9.952;2023-04-24T10:48:35;1.30;;;1.00;;
13704;SDS011;6924;52.122;9.952;2023-04-24T10:51:03;1.33;;;1.23;;
13704;SDS011;6924;52.122;9.952;2023-04-24T10:53:30;1.13;;;1.03;;
13704;SDS011;6924;52.122;9.952;2023-04-24T10:55:57;1.47;;;1.07;;
13704;SDS011;6924;52.122;9.952;2023-04-24T10:58:35;1.30;;;1.20;;
13704;SDS011;6924;52.122;9.952;2023-04-24T11:01:03;1.03;;;1.03;;
13704;SDS011;6924;52.122;9.952;2023-04-24T11:03:30;1.73;;;1.37;;
13704;SDS011;6924;52.122;9.952;2023-04-24T11:06:00;1.30;;;1.20;;
13704;SDS011;6924;52.122;9.952;2023-04-24T11:08:30;1.50;;;1.40;;
13704;SDS011;6924;52.122;9.952;2023-04-24T11:10:59;1.10;;;1.10;;
13704;SDS011;6924;52.122;9.952;2023-04-24T11:13:31;0.90;;;0.90;;
13704;SDS011;6924;52.122;9.952;2023-04-24T11:16:34;1.13;;;1.13;;
13704;SDS011;6924;52.122;9.952;2023-04-24T11:19:04;0.90;;;0.90;;
13704;SDS011;6924;52.122;9.952;2023-04-24T11:21:32;0.70;;;0.70;;
13704;SDS011;6924;52.122;9.952;2023-04-24T11:24:24;0.87;;;0.87;;
13704;SDS011;6924;52.122;9.952;2023-04-24T11:26:51;0.80;;;0.80;;
13704;SDS011;6924;52.122;9.952;2023-04-24T11:29:20;0.70;;;0.70;;
13704;SDS011;6924;52.122;9.952;2023-04-24T11:31:47;0.80;;;0.80;;
13704;SDS011;6924;52.122;9.952;2023-04-24T11:34:16;1.03;;;0.90;;
13704;SDS011;6924;52.122;9.952;2023-04-24T11:36:43;0.87;;;0.70;;
13704;SDS011;6924;52.122;9.952;2023-04-24T11:39:11;0.97;;;0.90;;
13704;SDS011;6924;52.122;9.952;2023-04-24T11:41:40;0.80;;;0.80;;
13704;SDS011;6924;52.122;9.952;2023-04-24T11:44:07;0.60;;;0.60;;
13704;SDS011;6924;52.122;9.952;2023-04-24T11:46:35;0.70;;;0.70;;
13704;SDS011;6924;52.122;9.952;2023-04-24T11:49:02;0.60;;;0.50;;
13704;SDS011;6924;52.122;9.952;2023-04-24T11:51:29;1.80;;;0.90;;
13704;SDS011;6924;52.122;9.952;2023-04-24T11:53:56;0.77;;;0.77;;
13704;SDS011;6924;52.122;9.952;2023-04-24T11:56:23;1.10;;;1.00;;
13704;SDS011;6924;52.122;9.952;2023-04-24T11:58:52;0.80;;;0.80;;
13704;SDS011;6924;52.122;9.952;2023-04-24T12:01:19;0.60;;;0.60;;
13704;SDS011;6924;52.122;9.952;2023-04-24T12:03:47;0.70;;;0.70;;
13704;SDS011;6924;52.122;9.952;2023-04-24T12:06:15;0.60;;;0.60;;
13704;SDS011;6924;52.122;9.952;2023-04-24T12:08:45;0.33;;;0.30;;
13704;SDS011;6924;52.122;9.952;2023-04-24T12:11:14;6.83;;;0.40;;
13704;SDS011;6924;52.122;9.952;2023-04-24T12:13:41;0.40;;;0.40;;
13704;SDS011;6924;52.122;9.952;2023-04-24T12:16:09;0.30;;;0.30;;
13704;SDS011;6924;52.122;9.952;2023-04-24T12:18:40;0.30;;;0.30;;
13704;SDS011;6924;52.122;9.952;2023-04-24T12:21:14;0.40;;;0.40;;
13704;SDS011;6924;52.122;9.952;2023-04-24T12:23:42;0.30;;;0.30;;
13704;SDS011;6924;52.122;9.952;2023-04-24T12:26:09;0.50;;;0.30;;
13704;SDS011;6924;52.122;9.952;2023-04-24T12:28:35;0.23;;;0.23;;
13704;SDS011;6924;52.122;9.952;2023-04-24T12:31:02;0.20;;;0.20;;
13704;SDS011;6924;52.122;9.952;2023-04-24T12:33:33;0.37;;;0.37;;
13704;SDS011;6924;52.122;9.952;2023-04-24T12:36:01;0.30;;;0.30;;
13704;SDS011;6924;52.122;9.952;2023-04-24T12:38:28;0.20;;;0.20;;
13704;SDS011;6924;52.122;9.952;2023-04-24T12:41:02;0.27;;;0.27;;
13704;SDS011;6924;52.122;9.952;2023-04-24T12:43:29;0.50;;;0.30;;
13704;SDS011;6924;52.122;9.952;2023-04-24T12:45:56;0.17;;;0.17;;
13704;SDS011;6924;52.122;9.952;2023-04-24T12:48:24;0.20;;;0.20;;
13704;SDS011;6924;52.122;9.952;2023-04-24T12:50:51;0.10;;;0.10;;
13704;SDS011;6924;52.122;9.952;2023-04-24T12:53:18;0.23;;;0.20;;
13704;SDS011;6924;52.122;9.952;2023-04-24T12:55:44;0.20;;;0.20;;
13704;SDS011;6924;52.122;9.952;2023-04-24T12:58:12;0.20;;;0.20;;
13704;SDS011;6924;52.122;9.952;2023-04-24T13:00:38;0.27;;;0.27;;
13704;SDS011;6924;52.122;9.952;2023-04-24T13:03:05;0.37;;;0.37;;
13704;SDS011;6924;52.122;9.952;2023-04-24T13:05:31;0.63;;;0.50;;
13704;SDS011;6924;52.122;9.952;2023-04-24T13:07:59;0.40;;;0.40;;
13704;SDS011;6924;52.122;9.952;2023-04-24T13:10:25;0.50;;;0.50;;
13704;SDS011;6924;52.122;9.952;2023-04-24T13:12:51;1.07;;;0.47;;
13704;SDS011;6924;52.122;9.952;2023-04-24T13:15:18;0.50;;;0.50;;
13704;SDS011;6924;52.122;9.952;2023-04-24T13:17:45;0.60;;;0.60;;
13704;SDS011;6924;52.122;9.952;2023-04-24T13:20:11;0.40;;;0.40;;
13704;SDS011;6924;52.122;9.952;2023-04-24T13:22:37;0.50;;;0.50;;
13704;SDS011;6924;52.122;9.952;2023-04-24T13:25:06;0.33;;;0.33;;
13704;SDS011;6924;52.122;9.952;2023-04-24T13:27:34;0.37;;;0.37;;
13704;SDS011;6924;52.122;9.952;2023-04-24T13:30:00;0.43;;;0.40;;
13704;SDS011;6924;52.122;9.952;2023-04-24T13:32:27;0.30;;;0.30;;
13704;SDS011;6924;52.122;9.952;2023-04-24T13:34:54;0.27;;;0.27;;
13704;SDS011;6924;52.122;9.952;2023-04-24T13:37:20;0.30;;;0.30;;
13704;SDS011;6924;52.122;9.952;2023-04-24T13:39:47;0.40;;;0.40;;
13704;SDS011;6924;52.122;9.952;2023-04-24T13:42:15;0.40;;;0.40;;
13704;SDS011;6924;52.122;9.952;2023-04-24T13:44:42;0.30;;;0.30;;
13704;SDS011;6924;52.122;9.952;2023-04-24T13:47:08;0.40;;;0.30;;
13704;SDS011;6924;52.122;9.952;2023-04-24T13:49:34;0.17;;;0.17;;
13704;SDS011;6924;52.122;9.952;2023-04-24T13:52:01;0.20;;;0.20;;
13704;SDS011;6924;52.122;9.952;2023-04-24T13:54:28;0.37;;;0.10;;
13704;SDS011;6924;52.122;9.952;2023-04-24T13:56:55;0.00;;;0.00;;
13704;SDS011;6924;52.122;9.952;2023-04-24T13:59:25;0.30;;;0.10;;
13704;SDS011;6924;52.122;9.952;2023-04-24T14:01:51;0.00;;;0.00;;
13704;SDS011;6924;52.122;9.952;2023-04-24T14:04:18;0.23;;;0.20;;
13704;SDS011;6924;52.122;9.952;2023-04-24T14:06:44;0.20;;;0.20;;
13704;SDS011;6924;52.122;9.952;2023-04-24T14:09:10;0.20;;;0.20;;
13704;SDS011;6924;52.122;9.952;2023-04-24T14:11:37;0.20;;;0.10;;
13704;SDS011;6924;52.122;9.952;2023-04-24T14:14:04;1.20;;;0.10;;
13704;SDS011;6924;52.122;9.952;2023-04-24T14:16:32;0.00;;;0.00;;
13704;SDS011;6924;52.122;9.952;2023-04-24T14:18:58;0.20;;;0.20;;
13704;SDS011;6924;52.122;9.952;2023-04-24T14:21:24;0.13;;;0.13;;
13704;SDS011;6924;52.122;9.952;2023-04-24T14:23:51;1.30;;;0.10;;
13704;SDS011;6924;52.122;9.952;2023-04-24T14:26:17;0.30;;;0.30;;
13704;SDS011;6924;52.122;9.952;2023-04-24T14:28:44;0.10;;;0.10;;
13704;SDS011;6924;52.122;9.952;2023-04-24T14:31:10;0.60;;;0.20;;
13704;SDS011;6924;52.122;9.952;2023-04-24T14:33:38;0.30;;;0.30;;
13704;SDS011;6924;52.122;9.952;2023-04-24T14:36:05;0.20;;;0.20;;
13704;SDS011;6924;52.122;9.952;2023-04-24T14:38:31;0.20;;;0.20;;
13704;SDS011;6924;52.122;9.952;2023-04-24T14:40:58;0.87;;;0.27;;
13704;SDS011;6924;52.122;9.952;2023-04-24T14:43:24;1.20;;;0.40;;
13704;SDS011;6924;52.122;9.952;2023-04-24T14:45:51;0.33;;;0.30;;
13704;SDS011;6924;52.122;9.952;2023-04-24T14:48:17;1.20;;;0.47;;
13704;SDS011;6924;52.122;9.952;2023-04-24T14:50:45;0.97;;;0.40;;
13704;SDS011;6924;52.122;9.952;2023-04-24T14:53:11;0.40;;;0.40;;
13704;SDS011;6924;52.122;9.952;2023-04-24T14:55:38;0.40;;;0.40;;
13704;SDS011;6924;52.122;9.952;2023-04-24T14:58:04;0.30;;;0.30;;
13704;SDS011;6924;52.122;9.952;2023-04-24T15:00:31;0.40;;;0.40;;